Time;durP1;ratioP1;P1;durP2;ratioP2;P2;SDS_P1;SDS_P2;PMS_P1;PMS_P2;Temp;Humidity;BMP_temperature;BMP_pressure;BME280_temperature;BME280_humidity;BME280_pressure;Samples;Min_cycle;Max_cycle;Signal;HPM_P1;HPM_P2
2022/07/05 00:03:59;;;;;;;0.97;0.70;;;;;;;20.87;62.67;96986.75;10404895;28;20292;-22
2022/07/05 00:09:00;;;;;;;0.83;0.77;;;;;;;20.82;62.84;96990.97;10400405;28;20050;-21
2022/07/05 00:14:00;;;;;;;0.70;0.70;;;;;;;20.82;63.07;96985.03;10396213;28;20029;-23
2022/07/05 00:19:00;;;;;;;1.73;1.03;;;;;;;20.80;63.16;96995.22;10406476;28;20045;-21
2022/07/05 00:24:01;;;;;;;0.67;0.67;;;;;;;20.80;62.91;96996.94;10395075;28;20037;-21
2022/07/05 00:29:01;;;;;;;0.93;0.80;;;;;;;20.79;63.01;96990.16;10404497;28;20033;-20
2022/07/05 00:34:01;;;;;;;2.40;1.30;;;;;;;20.86;63.53;96992.69;10396500;28;20038;-22
2022/07/05 00:39:03;;;;;;;3.10;1.50;;;;;;;21.14;63.17;96978.94;10402722;28;20635;-22
2022/07/05 00:44:09;;;;;;;0.70;0.70;;;;;;;21.18;61.98;96993.34;10398083;28;20831;-22
2022/07/05 00:49:09;;;;;;;0.65;0.60;;;;;;;20.96;62.56;96979.06;10389251;28;20041;-21
2022/07/05 00:54:10;;;;;;;0.60;0.50;;;;;;;20.89;62.77;96979.09;10390684;28;20050;-20
2022/07/05 00:59:10;;;;;;;0.67;0.67;;;;;;;20.85;62.68;96992.66;10398644;28;20338;-21
2022/07/05 01:04:12;;;;;;;0.80;0.80;;;;;;;20.76;62.90;96978.28;10389696;28;20038;-21
2022/07/05 01:09:13;;;;;;;0.55;0.55;;;;;;;20.75;62.96;96984.22;10398182;28;20045;-22
2022/07/05 01:14:19;;;;;;;0.70;0.70;;;;;;;20.72;63.08;96978.31;10401911;28;20049;-21
2022/07/05 01:19:21;;;;;;;0.65;0.60;;;;;;;20.76;63.05;96977.44;10399156;28;20038;-20
2022/07/05 01:24:22;;;;;;;1.48;0.80;;;;;;;20.85;63.24;96978.25;10400017;28;20475;-21
2022/07/05 01:29:22;;;;;;;1.73;1.50;;;;;;;21.18;62.44;96972.13;10400131;28;20025;-21
2022/07/05 01:34:23;;;;;;;1.03;0.87;;;;;;;21.16;62.20;96977.25;10399212;28;20033;-20
2022/07/05 01:39:23;;;;;;;0.70;0.63;;;;;;;20.97;62.46;96979.91;10396321;28;20093;-20
2022/07/05 01:44:24;;;;;;;3.17;0.80;;;;;;;20.84;62.59;96975.69;10397422;28;20108;-20
2022/07/05 01:49:27;;;;;;;0.60;0.60;;;;;;;20.82;62.74;96985.88;10404911;28;20538;-21
2022/07/05 01:54:28;;;;;;;0.93;0.70;;;;;;;20.80;62.79;96974.03;10395769;28;20121;-21
2022/07/05 01:59:31;;;;;;;0.70;0.70;;;;;;;20.78;63.08;96989.31;10406604;28;20463;-22
2022/07/05 02:04:33;;;;;;;1.35;0.80;;;;;;;20.77;62.72;96985.06;10395024;28;20037;-21
2022/07/05 02:09:35;;;;;;;0.70;0.70;;;;;;;20.77;62.86;96986.75;10398697;28;20380;-20
2022/07/05 02:14:35;;;;;;;1.40;1.30;;;;;;;20.82;63.14;96980.78;10395012;28;20439;-20
2022/07/05 02:19:40;;;;;;;2.78;1.48;;;;;;;21.13;61.72;96981.50;10401172;28;20060;-20
2022/07/05 02:24:42;;;;;;;1.48;0.80;;;;;;;21.13;61.76;96982.34;10401847;28;20091;-20
2022/07/05 02:29:52;;;;;;;0.88;0.50;;;;;;;20.95;62.09;96990.09;10400542;28;20036;-21
2022/07/05 02:34:58;;;;;;;0.60;0.50;;;;;;;20.82;62.63;96990.97;10390142;28;20030;-25
2022/07/05 02:39:59;;;;;;;1.38;0.77;;;;;;;20.81;62.57;96989.28;10393788;28;20029;-22
2022/07/05 02:44:59;;;;;;;0.50;0.50;;;;;;;20.78;62.73;96996.94;10401013;28;20033;-21
2022/07/05 02:50:05;;;;;;;1.17;0.70;;;;;;;20.77;62.94;97010.50;10391991;28;20041;-20
2022/07/05 02:55:07;;;;;;;0.80;0.70;;;;;;;20.75;62.63;96996.09;10383851;28;20112;-24
2022/07/05 03:00:09;;;;;;;1.73;0.88;;;;;;;20.76;63.00;97002.88;10393921;28;20117;-21
2022/07/05 03:05:16;;;;;;;1.30;1.20;;;;;;;20.85;61.50;97003.69;10394883;28;20033;-20
2022/07/05 03:10:25;;;;;;;2.70;1.48;;;;;;;21.09;60.81;97013.78;10395239;28;20110;-21
2022/07/05 03:15:26;;;;;;;1.88;1.23;;;;;;;21.09;60.58;97015.47;10390681;28;20026;-21
2022/07/05 03:20:27;;;;;;;1.35;0.75;;;;;;;20.95;61.77;97022.31;10395553;28;20426;-21
2022/07/05 03:25:29;;;;;;;2.15;0.77;;;;;;;20.90;61.94;97024.06;10395327;28;20029;-21
2022/07/05 03:30:31;;;;;;;2.63;0.80;;;;;;;20.81;62.42;97026.63;10390255;28;20021;-26
2022/07/05 03:35:32;;;;;;;2.97;1.38;;;;;;;20.81;62.26;97029.16;10391166;28;20030;-20
2022/07/05 03:40:33;;;;;;;2.35;0.90;;;;;;;20.71;62.36;97025.78;10383209;28;20216;-20
2022/07/05 03:45:34;;;;;;;1.42;1.17;;;;;;;20.77;62.45;97032.56;10385847;28;20037;-22
2022/07/05 03:50:35;;;;;;;0.93;0.70;;;;;;;20.59;63.07;97028.41;10398458;28;20068;-20
2022/07/05 03:55:36;;;;;;;0.93;0.65;;;;;;;21.00;56.96;97030.78;10393136;28;20048;-22
2022/07/05 04:00:37;;;;;;;1.77;1.20;;;;;;;20.95;56.10;97043.53;10397633;28;20065;-20
2022/07/05 04:05:41;;;;;;;1.58;1.13;;;;;;;20.90;56.58;97045.25;10394779;28;20038;-20
2022/07/05 04:10:42;;;;;;;1.30;1.05;;;;;;;20.82;57.17;97057.13;10395444;28;20029;-21
2022/07/05 04:15:43;;;;;;;2.08;1.00;;;;;;;20.84;57.63;97052.91;10391759;28;20029;-21
2022/07/05 04:20:43;;;;;;;3.10;1.08;;;;;;;20.80;57.29;97055.47;10394783;28;20407;-21
2022/07/05 04:25:46;;;;;;;1.98;1.10;;;;;;;20.68;56.36;97051.25;10390048;28;20033;-21
2022/07/05 04:30:52;;;;;;;1.63;1.10;;;;;;;20.66;56.18;97055.53;10388460;28;20022;-20
2022/07/05 04:35:55;;;;;;;1.83;1.10;;;;;;;20.64;56.44;97061.47;10396147;28;20120;-20
2022/07/05 04:40:56;;;;;;;2.95;1.10;;;;;;;20.57;57.06;97060.59;10392880;28;20025;-23
2022/07/05 04:45:57;;;;;;;3.10;1.35;;;;;;;20.69;56.71;97067.34;10346853;28;20541;-22
2022/07/05 04:51:00;;;;;;;8.25;0.93;;;;;;;20.55;57.71;97062.31;10392313;28;20459;-21
2022/07/05 04:56:02;;;;;;;4.57;1.17;;;;;;;20.60;57.78;97060.63;10392552;28;20645;-20
2022/07/05 05:01:02;;;;;;;9.82;2.80;;;;;;;20.63;57.65;97068.22;10388728;28;20034;-20
2022/07/05 05:06:03;;;;;;;9.30;2.17;;;;;;;20.64;59.42;97072.47;10398717;28;20041;-20
2022/07/05 05:11:05;;;;;;;4.00;1.17;;;;;;;20.61;60.00;97082.66;10400596;28;20184;-21
2022/07/05 05:16:05;;;;;;;2.25;0.77;;;;;;;20.62;59.81;97086.06;10390773;28;20189;-20
2022/07/05 05:21:06;;;;;;;1.70;1.00;;;;;;;20.63;60.49;97088.59;10388478;28;20038;-19
2022/07/05 05:26:06;;;;;;;3.60;0.95;;;;;;;20.61;59.64;97087.75;10394132;28;20104;-20
2022/07/05 05:31:07;;;;;;;10.63;2.50;;;;;;;20.68;58.88;97091.13;10387495;28;20031;-20
2022/07/05 05:36:07;;;;;;;5.28;0.90;;;;;;;20.54;60.36;97080.97;10388332;28;20029;-20
2022/07/05 05:41:08;;;;;;;4.18;1.50;;;;;;;20.81;58.06;97088.53;10388448;28;20114;-21
2022/07/05 05:46:08;;;;;;;4.97;1.45;;;;;;;20.89;57.96;97104.66;10391814;28;20120;-20
2022/07/05 05:51:08;;;;;;;1.63;0.90;;;;;;;20.85;59.24;97097.88;10399693;28;20032;-20
2022/07/05 05:56:09;;;;;;;2.60;0.97;;;;;;;20.74;60.38;97099.59;10402579;28;20042;-21
2022/07/05 06:01:09;;;;;;;1.53;1.07;;;;;;;20.71;60.69;97106.41;10401115;28;20116;-20
2022/07/05 06:06:10;;;;;;;5.22;1.10;;;;;;;20.68;60.88;97102.16;10392964;28;20618;-20
2022/07/05 06:11:10;;;;;;;2.67;1.03;;;;;;;20.67;61.03;97118.28;10405530;28;20083;-21
2022/07/05 06:16:10;;;;;;;2.20;0.90;;;;;;;20.60;61.15;97106.41;10392664;28;20028;-22
2022/07/05 06:21:11;;;;;;;1.50;0.73;;;;;;;20.67;61.07;97118.28;10400372;28;20798;-20
2022/07/05 06:26:11;;;;;;;1.00;0.70;;;;;;;20.65;61.01;97109.78;10394196;28;20145;-20
2022/07/05 06:31:11;;;;;;;1.77;1.10;;;;;;;20.83;59.25;97109.75;10393581;28;20373;-19
2022/07/05 06:36:12;;;;;;;4.87;1.00;;;;;;;20.99;58.78;97103.75;10403055;28;20388;-19
2022/07/05 06:41:12;;;;;;;1.63;0.80;;;;;;;20.94;59.82;97113.13;10400706;28;20295;-20
2022/07/05 06:46:12;;;;;;;0.87;0.77;;;;;;;20.80;60.77;97114.84;10398063;28;20045;-21
2022/07/05 06:51:13;;;;;;;1.43;1.00;;;;;;;20.74;61.19;97114.88;10399811;28;20048;-22
2022/07/05 06:56:13;;;;;;;0.77;0.77;;;;;;;20.71;61.21;97119.13;10397105;28;20029;-20
2022/07/05 07:01:13;;;;;;;2.63;0.90;;;;;;;20.69;61.43;97125.88;10394540;28;20091;-20
2022/07/05 07:06:15;;;;;;;1.60;1.00;;;;;;;20.67;61.41;97123.38;10396921;28;20408;-20
2022/07/05 07:11:15;;;;;;;1.20;0.70;;;;;;;20.66;61.09;97120.81;10405438;28;20030;-21
2022/07/05 07:16:15;;;;;;;0.95;0.80;;;;;;;20.51;61.34;97096.25;10399740;28;20391;-24
2022/07/05 07:21:16;;;;;;;2.10;1.10;;;;;;;20.77;60.32;97130.13;10399831;28;20484;-21
2022/07/05 07:26:17;;;;;;;2.47;0.90;;;;;;;20.93;57.13;97126.72;10399290;28;20100;-20
2022/07/05 07:31:17;;;;;;;0.93;0.70;;;;;;;21.02;58.58;97141.94;10392746;28;20383;-21
2022/07/05 07:36:18;;;;;;;2.80;0.80;;;;;;;20.84;60.51;97139.44;10395219;28;20067;-20
2022/07/05 07:41:18;;;;;;;0.60;0.60;;;;;;;20.77;60.91;97130.13;10396444;28;20038;-21
2022/07/05 07:46:18;;;;;;;1.97;0.57;;;;;;;20.74;61.21;97144.53;10390845;28;21147;-20
2022/07/05 07:51:21;;;;;;;2.40;0.90;;;;;;;20.71;61.38;97135.22;10390953;28;20518;-20
2022/07/05 07:56:21;;;;;;;1.77;0.80;;;;;;;20.69;61.06;97149.66;10394266;28;20080;-23
2022/07/05 08:01:22;;;;;;;0.70;0.60;;;;;;;20.70;61.36;97145.38;10392823;28;20469;-19
2022/07/05 08:06:22;;;;;;;1.40;0.70;;;;;;;20.69;61.33;97136.91;10400075;28;20032;-22
2022/07/05 08:11:23;;;;;;;1.83;0.88;;;;;;;20.71;61.08;97140.31;10396566;28;20041;-22
2022/07/05 08:16:23;;;;;;;1.40;0.80;;;;;;;20.99;58.39;97129.22;10386796;28;20136;-22
2022/07/05 08:21:38;;;;;;;0.70;0.70;;;;;;;21.03;59.48;97123.28;10388370;28;20034;-23
2022/07/05 08:26:39;;;;;;;0.82;0.70;;;;;;;20.90;60.52;97129.25;10393240;28;20033;-22
2022/07/05 08:31:42;;;;;;;1.90;1.15;;;;;;;20.68;60.93;97107.25;10391447;28;20396;-20
2022/07/05 08:36:42;;;;;;;0.70;0.70;;;;;;;20.76;61.33;97130.09;10388853;28;20042;-23
2022/07/05 08:41:49;;;;;;;0.63;0.63;;;;;;;20.73;61.55;97132.69;10393418;28;20060;-20
2022/07/05 08:46:52;;;;;;;0.98;0.85;;;;;;;20.68;61.43;97122.50;10393668;28;20394;-20
2022/07/05 08:51:54;;;;;;;1.00;0.80;;;;;;;20.73;61.56;97136.03;10394164;28;20041;-21
2022/07/05 08:56:55;;;;;;;0.82;0.52;;;;;;;20.71;61.44;97136.94;10391424;28;20059;-21
2022/07/05 09:01:57;;;;;;;1.37;0.70;;;;;;;20.70;61.66;97142.84;10394666;28;20053;-22
2022/07/05 09:07:04;;;;;;;2.10;1.00;;;;;;;20.92;60.59;97129.25;10394932;28;20108;-20
2022/07/05 09:12:05;;;;;;;2.72;1.10;;;;;;;21.04;60.07;97132.59;10388343;28;20449;-19
2022/07/05 09:17:05;;;;;;;1.30;0.55;;;;;;;20.93;60.70;97126.72;10399557;28;20066;-20
2022/07/05 09:22:08;;;;;;;2.92;0.73;;;;;;;20.80;61.72;97135.19;10395201;28;20122;-20
2022/07/05 09:27:08;;;;;;;0.60;0.60;;;;;;;20.74;61.56;97130.13;10393292;28;20064;-20
2022/07/05 09:32:22;;;;;;;1.47;0.87;;;;;;;20.73;61.73;97133.50;10399374;28;20037;-21
2022/07/05 09:37:43;;;;;;;0.70;0.70;;;;;;;20.74;62.11;97142.88;10402297;28;20033;-20
2022/07/05 09:42:43;;;;;;;0.80;0.65;;;;;;;20.73;62.00;97141.13;10398444;28;20498;-19
2022/07/05 09:47:44;;;;;;;1.27;0.70;;;;;;;20.76;61.96;97150.47;10399051;28;20041;-20
2022/07/05 09:52:45;;;;;;;2.78;1.20;;;;;;;20.76;62.08;97143.69;10402608;28;20292;-22
2022/07/05 09:57:50;;;;;;;3.05;1.10;;;;;;;20.95;60.36;97130.09;10398283;28;20044;-21
2022/07/05 10:02:53;;;;;;;3.63;0.93;;;;;;;21.08;59.90;97131.75;10394644;28;21027;-21
2022/07/05 10:07:58;;;;;;;1.30;0.90;;;;;;;20.92;61.18;97130.13;10398049;28;20435;-21
2022/07/05 10:13:00;;;;;;;3.38;1.50;;;;;;;20.86;61.58;97126.72;10390993;28;20067;-22
2022/07/05 10:18:12;;;;;;;0.80;0.80;;;;;;;20.81;61.50;97126.69;10403241;28;20060;-21
2022/07/05 10:23:13;;;;;;;7.72;3.85;;;;;;;20.80;61.59;97139.44;10391995;28;20030;-20
2022/07/05 10:28:15;;;;;;;6.13;3.22;;;;;;;20.77;61.71;97135.22;10401484;28;20112;-21
2022/07/05 10:33:20;;;;;;;2.35;1.35;;;;;;;20.78;61.69;97128.41;10398697;28;20040;-19
2022/07/05 10:38:21;;;;;;;1.20;1.00;;;;;;;20.77;61.66;97140.28;10397262;28;20120;-19
2022/07/05 10:43:23;;;;;;;1.23;1.10;;;;;;;20.76;61.87;97133.50;10405859;28;20667;-20
2022/07/05 10:48:25;;;;;;;3.30;1.25;;;;;;;20.94;60.57;97130.94;10401356;28;20025;-21
2022/07/05 10:53:35;;;;;;;10.82;5.60;;;;;;;21.10;59.91;97124.94;10398161;28;20022;-20
2022/07/05 10:58:36;;;;;;;6.97;3.28;;;;;;;21.00;60.74;97125.84;10400616;28;20497;-20
2022/07/05 11:03:41;;;;;;;6.13;2.88;;;;;;;20.87;61.38;97142.00;10398596;28;20372;-20
2022/07/05 11:08:56;;;;;;;6.03;3.70;;;;;;;20.80;61.58;97129.28;10395098;28;20030;-22
2022/07/05 11:13:59;;;;;;;6.00;3.03;;;;;;;20.78;61.74;97131.81;10396261;28;20053;-21
2022/07/05 11:19:10;;;;;;;6.45;3.05;;;;;;;20.81;62.74;97131.78;10399510;28;20053;-22
2022/07/05 11:24:35;;;;;;;12.80;4.03;;;;;;;20.79;62.90;97127.59;10392209;28;20038;-20
2022/07/05 11:29:51;;;;;;;3.92;2.47;;;;;;;20.75;63.04;97126.75;10385683;28;20044;-21
2022/07/05 11:34:53;;;;;;;;;;;;;;;20.69;63.08;97111.47;10383669;28;20025;-22
2022/07/05 11:40:11;;;;;;;12.27;5.72;;;;;;;20.94;61.53;97118.22;10395211;28;19917;-22
2022/07/05 11:45:12;;;;;;;9.00;5.55;;;;;;;21.09;60.88;97113.09;10382754;28;20226;-19
2022/07/05 11:50:14;;;;;;;6.82;2.90;;;;;;;21.05;61.07;97108.00;10390828;28;20086;-21
2022/07/05 11:55:15;;;;;;;5.30;2.50;;;;;;;20.86;62.10;97112.31;10393979;28;20532;-21
2022/07/05 12:00:32;;;;;;;5.40;2.40;;;;;;;20.81;62.14;97105.50;10389027;28;20087;-20
2022/07/05 12:05:33;;;;;;;4.93;2.15;;;;;;;20.79;62.36;97108.06;10392425;28;20287;-21
2022/07/05 12:16:00;;;;;;;5.07;3.03;;;;;;;20.73;62.42;97092.78;10394928;28;20042;-20
2022/07/05 12:21:00;;;;;;;3.80;1.90;;;;;;;20.75;62.53;97106.38;10395958;28;20045;-19
2022/07/05 12:26:01;;;;;;;5.37;2.50;;;;;;;20.75;62.37;97111.47;10393171;28;20038;-21
2022/07/05 12:31:23;;;;;;;9.70;3.63;;;;;;;20.95;61.31;97094.44;10384171;28;20026;-20
2022/07/05 12:36:23;;;;;;;12.10;4.90;;;;;;;21.11;60.57;97100.31;10390311;28;20071;-20
2022/07/05 12:41:24;;;;;;;2.67;2.13;;;;;;;21.05;61.55;97093.56;10388543;28;20038;-20
2022/07/05 12:46:39;;;;;;;3.33;2.20;;;;;;;20.90;61.63;97090.25;10392216;28;20284;-20
2022/07/05 12:51:44;;;;;;;6.18;2.92;;;;;;;20.84;61.93;97093.63;10397632;28;20548;-21
2022/07/05 13:02:09;;;;;;;5.70;2.28;;;;;;;20.79;62.16;97079.22;10398924;28;20030;-21
2022/07/05 13:07:10;;;;;;;3.97;2.03;;;;;;;20.78;62.25;97080.91;10399484;28;20042;-21
2022/07/05 13:12:19;;;;;;;4.35;2.22;;;;;;;20.78;62.13;97087.69;10396336;28;20034;-20
2022/07/05 13:17:21;;;;;;;8.93;3.00;;;;;;;20.78;62.35;97091.09;10404397;28;20530;-19
2022/07/05 13:22:21;;;;;;;13.82;4.68;;;;;;;20.98;61.34;97089.34;10404095;28;20036;-20
2022/07/05 13:27:21;;;;;;;9.10;3.73;;;;;;;21.14;60.15;97085.88;10394502;28;20052;-21
2022/07/05 13:32:22;;;;;;;4.80;1.77;;;;;;;21.10;60.83;97084.22;10398934;28;20269;-19
2022/07/05 13:37:22;;;;;;;3.90;2.00;;;;;;;20.93;61.37;97070.72;10399883;28;20039;-20
2022/07/05 13:42:23;;;;;;;3.00;2.38;;;;;;;20.87;61.92;97095.34;10397799;28;20296;-21
2022/07/05 13:47:23;;;;;;;5.93;2.03;;;;;;;20.81;62.10;97085.97;10398248;28;20033;-20
2022/07/05 13:52:24;;;;;;;2.40;1.80;;;;;;;20.80;62.16;97079.19;10395142;28;20288;-20
2022/07/05 13:57:24;;;;;;;3.83;2.03;;;;;;;20.79;61.88;97063.97;10394033;28;20029;-22
2022/07/05 14:02:24;;;;;;;3.07;1.87;;;;;;;20.78;62.23;97080.06;10398553;28;20091;-21
2022/07/05 14:07:25;;;;;;;3.10;2.13;;;;;;;20.76;62.12;97072.44;10406477;28;20288;-20
2022/07/05 14:12:25;;;;;;;5.27;2.30;;;;;;;20.92;61.33;97078.34;10398485;28;20283;-20
2022/07/05 14:17:25;;;;;;;7.10;3.22;;;;;;;21.11;60.63;97073.16;10405940;28;20146;-22
2022/07/05 14:22:26;;;;;;;2.80;1.97;;;;;;;21.13;60.82;97074.00;10397583;28;20457;-21
2022/07/05 14:27:26;;;;;;;3.10;1.60;;;;;;;20.98;61.32;97068.16;10402297;28;20276;-20
2022/07/05 14:32:27;;;;;;;3.35;1.40;;;;;;;20.88;61.78;97069.03;10400561;28;20026;-20
2022/07/05 14:37:27;;;;;;;3.03;1.47;;;;;;;20.83;61.99;97063.09;10404237;28;20555;-21
2022/07/05 14:42:27;;;;;;;3.63;1.60;;;;;;;20.82;62.08;97062.22;10403641;28;20037;-21
2022/07/05 14:47:28;;;;;;;5.83;2.60;;;;;;;20.79;62.02;97054.59;10397752;28;20381;-22
2022/07/05 14:52:30;;;;;;;2.65;1.90;;;;;;;20.80;62.21;97063.94;10397110;28;20398;-22
2022/07/05 14:57:30;;;;;;;6.13;2.25;;;;;;;20.78;62.36;97059.69;10397510;28;20030;-21
2022/07/05 15:02:31;;;;;;;2.70;2.00;;;;;;;20.87;61.89;97055.47;10397824;28;20042;-22
2022/07/05 15:07:31;;;;;;;4.10;3.37;;;;;;;21.06;61.34;97036.69;10401719;28;20674;-22
2022/07/05 15:12:32;;;;;;;3.00;1.50;;;;;;;21.17;60.93;97040.06;10402552;28;20025;-22
2022/07/05 15:17:33;;;;;;;1.80;1.55;;;;;;;21.01;61.40;97029.94;10395535;28;20029;-21
2022/07/05 15:22:33;;;;;;;1.55;1.20;;;;;;;20.90;61.78;97029.97;10396331;28;20034;-20
2022/07/05 15:27:34;;;;;;;1.63;1.23;;;;;;;20.87;62.13;97035.09;10397847;28;20026;-19
2022/07/05 15:32:36;;;;;;;1.87;1.40;;;;;;;20.83;62.21;97028.31;10390905;28;20026;-19
2022/07/05 15:37:36;;;;;;;3.25;1.50;;;;;;;20.82;62.15;97020.66;10399278;28;20295;-19
2022/07/05 15:42:37;;;;;;;2.20;1.70;;;;;;;20.82;62.15;97031.69;10401694;28;20029;-20
2022/07/05 15:47:39;;;;;;;7.95;1.67;;;;;;;20.80;62.24;97027.47;10400775;28;20276;-19
2022/07/05 15:52:40;;;;;;;2.78;2.13;;;;;;;20.81;62.10;97019.81;10399259;28;20022;-19
2022/07/05 15:57:40;;;;;;;4.63;2.38;;;;;;;21.07;61.57;97015.47;10399862;28;20047;-20
2022/07/05 16:02:41;;;;;;;4.53;2.47;;;;;;;21.03;61.85;97029.09;10398063;28;20041;-20
2022/07/05 16:07:42;;;;;;;5.88;2.10;;;;;;;21.03;62.44;97026.53;10395025;28;20064;-19
2022/07/05 16:12:42;;;;;;;2.50;1.70;;;;;;;20.97;62.16;97028.28;10395324;28;20040;-20
2022/07/05 16:17:43;;;;;;;4.20;1.97;;;;;;;20.96;62.03;97021.50;10399607;28;20037;-19
2022/07/05 16:22:43;;;;;;;3.67;1.77;;;;;;;20.92;62.07;97013.03;10399343;28;20297;-21
2022/07/05 16:27:43;;;;;;;3.97;1.63;;;;;;;20.94;62.01;97018.09;10400885;28;20613;-20
2022/07/05 16:32:44;;;;;;;3.17;1.47;;;;;;;20.93;62.06;97019.81;10393344;28;20100;-19
2022/07/05 16:37:44;;;;;;;3.47;1.60;;;;;;;20.93;62.13;97029.13;10398510;28;20326;-19
2022/07/05 16:42:45;;;;;;;5.13;2.13;;;;;;;20.90;62.27;97018.97;10391512;28;20034;-20
2022/07/05 16:47:45;;;;;;;7.90;2.27;;;;;;;21.13;61.83;97022.25;10402052;28;20786;-20
2022/07/05 16:52:46;;;;;;;4.80;2.00;;;;;;;21.25;62.07;97017.06;10392690;28;20049;-21
2022/07/05 16:57:46;;;;;;;1.48;1.27;;;;;;;21.09;61.81;97018.88;10383543;28;20041;-21
2022/07/05 17:02:47;;;;;;;3.00;1.60;;;;;;;21.05;62.03;97017.19;10384570;28;20120;-20
2022/07/05 17:07:48;;;;;;;3.08;1.77;;;;;;;21.00;62.16;97007.88;10388096;28;20354;-20
2022/07/05 17:12:48;;;;;;;4.40;1.92;;;;;;;21.17;62.42;97022.22;10397457;28;20128;-20
2022/07/05 17:17:48;;;;;;;6.03;2.10;;;;;;;21.29;61.87;97014.50;10399959;28;20050;-21
2022/07/05 17:22:50;;;;;;;7.27;1.60;;;;;;;21.20;62.61;97013.69;10400351;28;20370;-19
2022/07/05 17:27:50;;;;;;;4.93;1.52;;;;;;;21.12;61.99;97021.38;10398950;28;20091;-20
2022/07/05 17:32:50;;;;;;;2.03;1.10;;;;;;;21.00;62.20;97011.28;10390949;28;20389;-20
2022/07/05 17:37:51;;;;;;;6.40;2.00;;;;;;;21.23;62.41;97028.97;10394324;28;20508;-21
2022/07/05 17:42:51;;;;;;;5.07;1.58;;;;;;;21.28;61.71;97037.41;10399326;28;20076;-19
2022/07/05 17:47:51;;;;;;;2.67;1.33;;;;;;;21.13;61.88;97038.34;10402365;28;20042;-20
2022/07/05 17:52:52;;;;;;;5.10;1.53;;;;;;;21.09;61.79;97051.97;10399184;28;20105;-21
2022/07/05 17:57:52;;;;;;;5.27;1.80;;;;;;;21.07;62.09;97043.47;10401882;28;20052;-22
2022/07/05 18:02:53;;;;;;;6.83;2.87;;;;;;;21.16;62.42;97043.47;10407871;28;20300;-25
2022/07/05 18:07:56;;;;;;;9.95;2.42;;;;;;;21.30;62.15;97044.19;10404170;28;20077;-22
2022/07/05 18:12:57;;;;;;;2.10;1.40;;;;;;;21.16;61.55;97047.69;10388794;28;20029;-19
2022/07/05 18:17:58;;;;;;;3.95;1.75;;;;;;;21.10;61.86;97050.25;10392586;28;20384;-19
2022/07/05 18:22:58;;;;;;;3.17;1.63;;;;;;;21.05;62.25;97052.81;10386719;28;20037;-21
2022/07/05 18:27:58;;;;;;;1.85;1.08;;;;;;;21.01;62.03;97043.53;10390197;28;20092;-22
2022/07/05 18:32:59;;;;;;;6.97;2.10;;;;;;;21.20;62.20;97040.03;10388649;28;20464;-22
2022/07/05 18:38:00;;;;;;;3.03;1.40;;;;;;;21.27;61.75;97043.38;10394154;28;20409;-21
2022/07/05 18:43:00;;;;;;;1.35;1.23;;;;;;;21.15;61.91;97046.81;10386977;28;20382;-20
2022/07/05 18:48:00;;;;;;;2.67;1.23;;;;;;;21.08;62.21;97060.47;10394255;28;20040;-20
2022/07/05 18:53:01;;;;;;;3.10;1.10;;;;;;;21.06;62.09;97061.31;10403934;28;20201;-16
2022/07/05 18:58:01;;;;;;;2.97;1.42;;;;;;;20.96;62.53;97057.97;10406270;28;20500;-21
2022/07/05 19:03:02;;;;;;;3.70;1.50;;;;;;;21.23;61.67;97070.56;10404196;28;20091;-20
2022/07/05 19:18:40;;;;;;;5.80;1.50;;;;;;;21.09;61.73;97082.53;10400957;28;20030;-20
2022/07/05 19:23:40;;;;;;;1.73;1.30;;;;;;;20.81;62.60;97067.34;10402657;28;20064;-20
2022/07/05 19:28:41;;;;;;;2.38;1.13;;;;;;;20.77;62.88;97086.84;10395084;28;20293;-21
2022/07/05 19:33:41;;;;;;;2.17;1.20;;;;;;;20.75;62.74;97091.13;10402928;28;20033;-19
2022/07/05 19:38:41;;;;;;;1.60;0.93;;;;;;;20.74;62.77;97086.88;10402980;28;20033;-24
2022/07/05 19:43:42;;;;;;;1.80;1.40;;;;;;;20.71;62.53;97097.03;10393535;28;20030;-21
2022/07/05 19:48:44;;;;;;;1.47;1.10;;;;;;;20.64;62.19;97094.53;10403841;28;20026;-20
2022/07/05 19:53:44;;;;;;;3.05;1.52;;;;;;;20.62;62.19;97107.25;10398598;28;20040;-20
2022/07/05 19:58:45;;;;;;;2.35;0.93;;;;;;;20.53;62.14;97102.19;10395120;28;20411;-21
2022/07/05 20:03:45;;;;;;;1.10;1.00;;;;;;;20.45;62.19;97116.59;10404215;28;20077;-19
2022/07/05 20:08:46;;;;;;;3.75;1.10;;;;;;;20.54;61.54;97129.31;10402004;28;20357;-21
2022/07/05 20:13:47;;;;;;;1.63;1.10;;;;;;;20.69;61.37;97124.19;10399492;28;20025;-22
2022/07/05 20:18:47;;;;;;;2.10;1.10;;;;;;;20.57;61.12;97131.84;10402462;28;20080;-20
2022/07/05 20:23:48;;;;;;;2.45;0.90;;;;;;;20.48;61.48;97131.84;10393161;28;20044;-21
2022/07/05 20:28:48;;;;;;;1.48;1.02;;;;;;;20.43;61.47;97143.75;10395953;28;20100;-22
2022/07/05 20:33:49;;;;;;;1.23;1.10;;;;;;;20.42;61.35;97145.44;10402083;28;20499;-21
2022/07/05 20:38:49;;;;;;;2.38;1.40;;;;;;;20.39;61.14;97147.13;10402183;28;20059;-21
2022/07/05 20:43:49;;;;;;;1.67;1.10;;;;;;;20.40;60.74;97159.00;10398701;28;20535;-21
2022/07/05 20:48:50;;;;;;;2.57;0.90;;;;;;;20.45;60.45;97162.38;10401534;28;20499;-21
2022/07/05 20:53:53;;;;;;;2.87;0.93;;;;;;;20.35;60.34;97149.69;10399184;28;20499;-20
2022/07/05 20:58:54;;;;;;;1.58;1.00;;;;;;;20.34;60.21;97167.50;10397941;28;20029;-19
2022/07/05 21:03:54;;;;;;;2.20;1.03;;;;;;;20.33;60.02;97175.97;10402425;28;20026;-20
2022/07/05 21:08:54;;;;;;;2.03;1.00;;;;;;;20.26;60.14;97187.00;10404525;28;20284;-21
2022/07/05 21:13:55;;;;;;;2.63;0.80;;;;;;;20.23;59.67;97186.97;10403479;28;20025;-22
2022/07/05 21:18:55;;;;;;;1.80;0.97;;;;;;;20.22;59.30;97187.81;10410020;28;20288;-21
2022/07/05 21:23:56;;;;;;;2.20;1.13;;;;;;;20.27;59.24;97191.22;10407223;28;20455;-22
2022/07/05 21:28:57;;;;;;;1.92;0.80;;;;;;;20.29;58.92;97205.66;10403382;28;20029;-20
2022/07/05 21:33:57;;;;;;;1.40;1.30;;;;;;;20.25;58.88;97203.09;10409383;28;20025;-21
2022/07/05 21:38:58;;;;;;;1.60;1.00;;;;;;;20.21;58.77;97214.09;10409306;28;20321;-21
2022/07/05 21:44:00;;;;;;;2.57;1.10;;;;;;;20.16;58.83;97218.31;10406170;28;20029;-21
2022/07/05 21:49:02;;;;;;;1.77;1.17;;;;;;;20.17;58.86;97231.03;10410113;28;20485;-20
2022/07/05 21:54:02;;;;;;;1.55;1.02;;;;;;;20.13;58.31;97233.56;10408520;28;20060;-21
2022/07/05 22:04:24;;;;;;;1.98;0.93;;;;;;;20.17;58.02;97250.53;10380378;28;20141;-21
2022/07/05 22:09:26;;;;;;;1.77;0.90;;;;;;;20.20;58.34;97248.00;10400609;28;20037;-25
2022/07/05 22:14:27;;;;;;;1.83;0.90;;;;;;;20.15;58.29;97242.03;10400723;28;20037;-21
2022/07/05 22:19:27;;;;;;;2.13;1.08;;;;;;;20.06;58.43;97250.53;10395254;28;20405;-20
2022/07/05 22:24:28;;;;;;;1.47;1.00;;;;;;;20.05;58.31;97256.44;10399132;28;20109;-21
2022/07/05 22:29:28;;;;;;;1.48;0.95;;;;;;;20.04;58.37;97258.94;10395628;28;20848;-21
2022/07/05 22:34:29;;;;;;;1.55;0.80;;;;;;;20.01;58.34;97264.88;10397561;28;20038;-23
2022/07/05 22:39:29;;;;;;;1.40;1.00;;;;;;;20.03;58.17;97254.72;10394921;28;20037;-22
2022/07/05 22:44:30;;;;;;;1.77;1.00;;;;;;;20.01;58.00;97269.13;10401690;28;20079;-22
2022/07/05 22:49:30;;;;;;;1.15;1.05;;;;;;;20.05;58.02;97265.75;10394643;28;20113;-21
2022/07/05 22:54:31;;;;;;;1.70;0.90;;;;;;;20.08;57.70;97266.63;10397864;28;20037;-21
2022/07/05 22:59:31;;;;;;;1.50;0.80;;;;;;;19.99;57.60;97275.88;10397951;28;20039;-22
2022/07/05 23:04:31;;;;;;;2.30;1.10;;;;;;;20.01;57.68;97269.13;10400194;28;20480;-22
2022/07/05 23:09:32;;;;;;;0.97;0.87;;;;;;;19.98;57.86;97271.63;10402548;28;20060;-21
2022/07/05 23:14:32;;;;;;;2.33;1.03;;;;;;;19.89;57.42;97266.53;10405691;28;20315;-21
2022/07/05 23:19:32;;;;;;;1.83;0.87;;;;;;;19.92;57.44;97279.25;10399750;28;20658;-21
2022/07/05 23:29:52;;;;;;;1.35;1.10;;;;;;;19.97;56.96;97290.28;10399462;28;20371;-22
2022/07/05 23:34:53;;;;;;;2.88;1.35;;;;;;;19.98;56.94;97284.34;10401170;28;20029;-21
2022/07/05 23:39:55;;;;;;;2.42;1.10;;;;;;;19.92;56.90;97284.34;10406472;28;20045;-21
2022/07/05 23:44:55;;;;;;;1.23;1.10;;;;;;;19.89;56.73;97279.22;10401813;28;20488;-23
2022/07/05 23:49:55;;;;;;;2.45;1.23;;;;;;;19.87;56.51;97286.00;10401804;28;20025;-21
2022/07/05 23:54:57;;;;;;;2.37;1.20;;;;;;;19.88;56.56;97282.63;10401750;28;20033;-21